Time;durP1;ratioP1;P1;durP2;ratioP2;P2;SDS_P1;SDS_P2;PMS_P1;PMS_P2;Temp;Humidity;BMP_temperature;BMP_pressure;BME280_temperature;BME280_humidity;BME280_pressure;Samples;Min_cycle;Max_cycle;Signal;HPM_P1;HPM_P2
2024/03/06 00:01:41;;;;;;;11.77;6.70;;;6.90;99.90;;;;;;4154020;28;20037;-59
2024/03/06 00:03:41;;;;;;;9.93;5.93;;;6.90;99.90;;;;;;4157935;28;20042;-59
2024/03/06 00:05:42;;;;;;;7.82;5.45;;;6.90;99.90;;;;;;4155264;28;20120;-59
2024/03/06 00:07:42;;;;;;;9.07;5.43;;;6.90;99.90;;;;;;4130649;28;20414;-59
2024/03/06 00:09:44;;;;;;;7.63;4.85;;;6.90;99.90;;;;;;4132238;28;20049;-59
2024/03/06 00:11:45;;;;;;;7.78;4.57;;;6.80;99.90;;;;;;4132041;28;20034;-59
2024/03/06 00:13:47;;;;;;;6.57;4.45;;;6.80;99.90;;;;;;4132527;28;20061;-60
2024/03/06 00:15:48;;;;;;;8.32;4.63;;;6.80;99.90;;;;;;4139713;28;20536;-60
2024/03/06 00:17:49;;;;;;;6.82;4.82;;;6.80;99.90;;;;;;4136728;28;20065;-60
2024/03/06 00:19:49;;;;;;;8.15;4.78;;;6.80;99.90;;;;;;4140764;28;20041;-59
2024/03/06 00:21:50;;;;;;;8.85;5.25;;;6.80;99.90;;;;;;4135603;28;20434;-59
2024/03/06 00:23:51;;;;;;;8.40;5.30;;;6.80;99.90;;;;;;4139741;28;20041;-59
2024/03/06 00:25:52;;;;;;;7.38;4.68;;;6.80;99.90;;;;;;4138906;28;20117;-59
2024/03/06 00:27:54;;;;;;;8.50;4.80;;;6.80;99.90;;;;;;4136932;28;20057;-59
2024/03/06 00:29:54;;;;;;;9.90;6.20;;;6.80;99.90;;;;;;4139405;28;20486;-62
2024/03/06 00:31:55;;;;;;;7.75;4.78;;;6.70;99.90;;;;;;4137522;28;20052;-67
2024/03/06 00:33:55;;;;;;;8.85;5.15;;;6.70;99.90;;;;;;4141620;28;20066;-63
2024/03/06 00:35:56;;;;;;;7.75;4.85;;;6.70;99.90;;;;;;4123893;28;20041;-63
2024/03/06 00:37:57;;;;;;;8.85;5.55;;;6.70;99.90;;;;;;4135456;28;20043;-63
2024/03/06 00:39:57;;;;;;;9.30;5.80;;;6.70;99.90;;;;;;4130810;28;20551;-63
2024/03/06 00:41:58;;;;;;;10.35;6.18;;;6.70;99.90;;;;;;4129617;28;20116;-62
2024/03/06 00:43:58;;;;;;;7.95;5.57;;;6.70;99.90;;;;;;4140529;28;20088;-63
2024/03/06 00:45:59;;;;;;;7.47;4.80;;;6.70;99.90;;;;;;4140615;28;20439;-63
2024/03/06 00:48:00;;;;;;;8.45;5.00;;;6.70;99.90;;;;;;4142451;28;20046;-63
2024/03/06 00:50:01;;;;;;;8.40;5.32;;;6.70;99.90;;;;;;4143358;28;20037;-63
2024/03/06 00:52:01;;;;;;;7.78;5.15;;;6.70;99.90;;;;;;4134937;28;20502;-63
2024/03/06 00:54:02;;;;;;;9.63;5.90;;;6.70;99.90;;;;;;4144510;28;20532;-63
2024/03/06 00:56:03;;;;;;;9.85;5.72;;;6.70;99.90;;;;;;4140966;28;20049;-63
2024/03/06 00:58:04;;;;;;;9.55;5.82;;;6.70;99.90;;;;;;4142323;28;20053;-63
2024/03/06 01:00:10;;;;;;;9.68;6.15;;;6.70;99.90;;;;;;4140900;28;20041;-63
2024/03/06 01:02:11;;;;;;;9.13;5.80;;;6.70;99.90;;;;;;4139525;28;20037;-63
2024/03/06 01:04:12;;;;;;;10.05;6.45;;;6.70;99.90;;;;;;4142104;28;20108;-63
2024/03/06 01:06:12;;;;;;;10.90;6.60;;;6.70;99.90;;;;;;4144071;28;20121;-63
2024/03/06 01:08:15;;;;;;;9.35;5.78;;;6.70;99.90;;;;;;4161218;28;20037;-63
2024/03/06 01:10:16;;;;;;;9.65;6.07;;;6.70;99.90;;;;;;4156928;28;20552;-63
2024/03/06 01:12:18;;;;;;;11.80;6.57;;;6.70;99.90;;;;;;4158470;28;20029;-63
2024/03/06 01:14:18;;;;;;;9.75;6.32;;;6.80;99.90;;;;;;4148441;28;20041;-63
2024/03/06 01:16:20;;;;;;;10.73;6.93;;;6.70;99.90;;;;;;4154443;28;20457;-63
2024/03/06 01:18:20;;;;;;;11.13;6.70;;;6.70;99.90;;;;;;4157672;28;20044;-63
2024/03/06 01:20:21;;;;;;;14.23;7.55;;;6.80;99.90;;;;;;4151417;28;20030;-63
2024/03/06 01:22:21;;;;;;;12.88;7.00;;;6.80;99.90;;;;;;4150856;28;20123;-63
2024/03/06 01:24:22;;;;;;;13.30;7.45;;;6.80;99.90;;;;;;4157316;28;20057;-63
2024/03/06 01:26:23;;;;;;;11.45;6.72;;;6.70;99.90;;;;;;4158678;28;20034;-63
2024/03/06 01:28:23;;;;;;;13.27;7.03;;;6.80;99.90;;;;;;4160881;28;20041;-63
2024/03/06 01:30:24;;;;;;;13.57;7.80;;;6.80;99.90;;;;;;4156486;28;20395;-63
2024/03/06 01:32:24;;;;;;;17.55;8.75;;;6.80;99.90;;;;;;4150203;28;20033;-63
2024/03/06 01:34:25;;;;;;;14.40;8.07;;;6.80;99.90;;;;;;4155254;28;20461;-63
2024/03/06 01:36:26;;;;;;;13.32;7.55;;;6.90;99.90;;;;;;4150356;28;20061;-64
2024/03/06 01:38:26;;;;;;;18.58;9.18;;;6.90;99.90;;;;;;4160354;28;20438;-63
2024/03/06 01:40:28;;;;;;;15.30;8.13;;;6.90;99.90;;;;;;4154024;28;20086;-63
2024/03/06 01:42:29;;;;;;;17.75;8.82;;;6.90;99.90;;;;;;4160644;28;20458;-63
2024/03/06 01:44:30;;;;;;;15.70;8.80;;;6.80;99.90;;;;;;4148064;28;20045;-63
2024/03/06 01:46:31;;;;;;;16.55;9.25;;;6.90;99.90;;;;;;4159149;28;20029;-63
2024/03/06 01:48:31;;;;;;;15.10;7.53;;;6.90;99.90;;;;;;4157908;28;20053;-63
2024/03/06 01:50:32;;;;;;;15.30;8.52;;;6.90;99.90;;;;;;4150839;28;20048;-63
2024/03/06 01:52:33;;;;;;;16.70;8.65;;;6.90;99.90;;;;;;4156200;28;20042;-63
2024/03/06 01:54:33;;;;;;;14.43;8.32;;;6.90;99.90;;;;;;4150692;28;20064;-63
2024/03/06 01:56:37;;;;;;;12.55;7.03;;;6.90;99.90;;;;;;4155283;28;20099;-63
2024/03/06 01:58:39;;;;;;;11.27;6.63;;;6.90;99.90;;;;;;4158613;28;20030;-63
2024/03/06 02:00:40;;;;;;;13.57;7.22;;;7.00;99.90;;;;;;4134727;28;20073;-63
2024/03/06 02:02:44;;;;;;;11.18;6.82;;;7.00;99.90;;;;;;4153910;28;20033;-63
2024/03/06 02:04:44;;;;;;;12.82;6.88;;;7.00;99.90;;;;;;4154836;28;20489;-63
2024/03/06 02:06:46;;;;;;;15.57;8.15;;;7.00;99.90;;;;;;4146464;28;20265;-63
2024/03/06 02:08:46;;;;;;;15.38;8.63;;;7.10;99.90;;;;;;4159881;28;20049;-63
2024/03/06 02:10:47;;;;;;;13.43;7.93;;;7.10;99.90;;;;;;4153015;28;20046;-63
2024/03/06 02:12:48;;;;;;;12.15;7.45;;;7.10;99.90;;;;;;4156947;28;20095;-63
2024/03/06 02:14:49;;;;;;;13.82;8.00;;;7.10;99.90;;;;;;4158649;28;20033;-63
2024/03/06 02:16:50;;;;;;;13.10;7.47;;;7.20;99.90;;;;;;4159203;28;20497;-64
2024/03/06 02:18:59;;;;;;;13.45;7.28;;;7.20;99.90;;;;;;4158214;28;20049;-64
2024/03/06 02:21:00;;;;;;;12.88;7.80;;;7.20;99.90;;;;;;4156921;28;20041;-63
2024/03/06 02:23:01;;;;;;;13.50;8.00;;;7.20;99.90;;;;;;4159223;28;20041;-63
2024/03/06 02:25:01;;;;;;;11.73;7.13;;;7.20;99.90;;;;;;4157265;28;20129;-63
2024/03/06 02:27:05;;;;;;;13.20;7.72;;;7.20;99.90;;;;;;4143383;28;20044;-63
2024/03/06 02:29:06;;;;;;;12.02;7.28;;;7.30;99.90;;;;;;4138493;28;20430;-63
2024/03/06 02:31:06;;;;;;;13.65;8.15;;;7.30;99.90;;;;;;4140887;28;20895;-63
2024/03/06 02:33:07;;;;;;;12.80;7.10;;;7.30;99.90;;;;;;4142027;28;20078;-63
2024/03/06 02:35:08;;;;;;;12.45;8.18;;;7.30;99.90;;;;;;4139253;28;20398;-63
2024/03/06 02:37:09;;;;;;;11.98;7.32;;;7.30;99.90;;;;;;4156692;28;20116;-63
2024/03/06 02:39:10;;;;;;;13.77;8.05;;;7.30;99.90;;;;;;4151187;28;20397;-63
2024/03/06 02:41:11;;;;;;;13.10;8.15;;;7.30;99.90;;;;;;4142576;28;21066;-63
2024/03/06 02:43:11;;;;;;;11.80;7.63;;;7.30;99.90;;;;;;4173110;28;20044;-63
2024/03/06 02:45:12;;;;;;;12.30;7.38;;;7.40;99.90;;;;;;4156365;28;20033;-64
2024/03/06 02:47:13;;;;;;;15.50;9.05;;;7.40;99.90;;;;;;4153646;28;20069;-63
2024/03/06 02:49:13;;;;;;;13.55;7.57;;;7.40;99.90;;;;;;4153102;28;20044;-63
2024/03/06 02:51:19;;;;;;;12.32;7.65;;;7.30;99.90;;;;;;4152100;28;20034;-62
2024/03/06 02:53:20;;;;;;;13.73;8.50;;;7.30;99.90;;;;;;4157035;28;20041;-67
2024/03/06 02:55:22;;;;;;;11.43;7.30;;;7.30;99.90;;;;;;4158445;28;20056;-67
2024/03/06 02:57:22;;;;;;;11.15;7.13;;;7.30;99.90;;;;;;4156640;28;20041;-67
2024/03/06 02:59:24;;;;;;;11.93;7.85;;;7.30;99.90;;;;;;4156638;28;20042;-67
2024/03/06 03:01:24;;;;;;;10.85;7.13;;;7.30;99.90;;;;;;4156442;28;20044;-66
2024/03/06 03:03:25;;;;;;;11.48;7.18;;;7.30;99.90;;;;;;4159189;28;20710;-66
2024/03/06 03:05:26;;;;;;;10.35;6.90;;;7.30;99.90;;;;;;4150157;28;20114;-67
2024/03/06 03:07:27;;;;;;;12.65;7.32;;;7.20;99.90;;;;;;4156240;28;20045;-67
2024/03/06 03:09:28;;;;;;;10.55;7.38;;;7.30;99.90;;;;;;4154942;28;20108;-66
2024/03/06 03:11:28;;;;;;;13.40;7.60;;;7.30;99.90;;;;;;4154782;28;20033;-67
2024/03/06 03:13:30;;;;;;;12.32;7.28;;;7.20;99.90;;;;;;4154536;28;20485;-67
2024/03/06 03:15:32;;;;;;;13.00;7.78;;;7.20;99.90;;;;;;4151565;28;20249;-67
2024/03/06 03:17:36;;;;;;;12.60;8.48;;;7.20;99.90;;;;;;4152288;28;20037;-67
2024/03/06 03:19:39;;;;;;;13.50;7.97;;;7.10;99.90;;;;;;4134299;28;20034;-66
2024/03/06 03:21:45;;;;;;;13.75;8.65;;;7.20;99.90;;;;;;4155010;28;20044;-67
2024/03/06 03:23:46;;;;;;;13.80;8.30;;;7.20;99.90;;;;;;4154962;28;20037;-67
2024/03/06 03:25:47;;;;;;;13.93;8.35;;;7.10;99.90;;;;;;4154253;28;20117;-67
2024/03/06 03:27:47;;;;;;;14.20;7.72;;;7.10;99.90;;;;;;4155040;28;20494;-67
2024/03/06 03:29:48;;;;;;;14.27;8.40;;;7.10;99.90;;;;;;4155556;28;20029;-67
2024/03/06 03:31:48;;;;;;;13.30;7.43;;;7.10;99.90;;;;;;4146984;28;20026;-67
2024/03/06 03:33:49;;;;;;;11.82;7.00;;;7.10;99.90;;;;;;4155660;28;20501;-67
2024/03/06 03:35:50;;;;;;;12.20;7.65;;;7.10;99.90;;;;;;4153240;28;20079;-67
2024/03/06 03:37:55;;;;;;;11.95;8.00;;;7.10;99.90;;;;;;4154271;28;20045;-67
2024/03/06 03:39:55;;;;;;;11.13;7.32;;;7.10;99.90;;;;;;4154319;28;20445;-67
2024/03/06 03:41:56;;;;;;;12.35;7.70;;;7.10;99.90;;;;;;4154025;28;20050;-67
2024/03/06 03:43:57;;;;;;;11.73;7.43;;;7.10;99.90;;;;;;4158333;28;20034;-66
2024/03/06 03:45:57;;;;;;;11.40;7.18;;;7.10;99.90;;;;;;4157521;28;20041;-67
2024/03/06 03:47:58;;;;;;;12.13;7.18;;;7.00;99.90;;;;;;4157070;28;20167;-67
2024/03/06 03:49:59;;;;;;;14.18;7.75;;;7.00;99.90;;;;;;4150334;28;20474;-67
2024/03/06 03:51:59;;;;;;;11.20;7.50;;;7.00;99.90;;;;;;4149990;28;20034;-67
2024/03/06 03:54:00;;;;;;;12.57;7.10;;;7.00;99.90;;;;;;4150232;28;20069;-67
2024/03/06 03:56:01;;;;;;;8.90;6.40;;;7.00;99.90;;;;;;4150544;28;20037;-67
2024/03/06 03:58:02;;;;;;;10.77;6.95;;;6.90;99.90;;;;;;4153688;28;20041;-67
2024/03/06 04:00:03;;;;;;;11.70;6.90;;;6.90;99.90;;;;;;4151808;28;20108;-68
2024/03/06 04:02:04;;;;;;;9.77;6.55;;;6.80;99.90;;;;;;4153499;28;20056;-65
2024/03/06 04:04:04;;;;;;;10.35;6.90;;;6.80;99.90;;;;;;4149689;28;20435;-59
2024/03/06 04:06:06;;;;;;;11.02;6.65;;;6.80;99.90;;;;;;4152524;28;20045;-59
2024/03/06 04:08:06;;;;;;;13.03;6.90;;;6.80;99.90;;;;;;4158035;28;20130;-59
2024/03/06 04:10:10;;;;;;;12.23;6.72;;;6.70;99.90;;;;;;4150264;28;20045;-60
2024/03/06 04:12:11;;;;;;;12.55;7.70;;;6.70;99.90;;;;;;4144388;28;20486;-59
2024/03/06 04:14:11;;;;;;;11.73;7.63;;;6.70;99.90;;;;;;4153726;28;20036;-59
2024/03/06 04:16:17;;;;;;;11.45;7.43;;;6.70;99.90;;;;;;4149336;28;20036;-59
2024/03/06 04:18:17;;;;;;;13.30;7.88;;;6.60;99.90;;;;;;4153852;28;20049;-59
2024/03/06 04:20:18;;;;;;;13.02;8.07;;;6.60;99.90;;;;;;4152243;28;20095;-59
2024/03/06 04:22:19;;;;;;;13.13;8.55;;;6.60;99.90;;;;;;4155439;28;20037;-59
2024/03/06 04:24:20;;;;;;;11.75;7.20;;;6.60;99.90;;;;;;4156127;28;20338;-59
2024/03/06 04:26:20;;;;;;;15.55;8.48;;;6.50;99.90;;;;;;4156256;28;20038;-59
2024/03/06 04:28:21;;;;;;;14.18;8.32;;;6.50;99.90;;;;;;4153975;28;20433;-59
2024/03/06 04:30:22;;;;;;;14.45;8.20;;;6.50;99.90;;;;;;4151789;28;20049;-59
2024/03/06 04:32:22;;;;;;;14.90;8.63;;;6.50;99.90;;;;;;4158888;28;20033;-59
2024/03/06 04:34:23;;;;;;;12.80;7.65;;;6.40;99.90;;;;;;4153189;28;20045;-59
2024/03/06 04:36:23;;;;;;;12.43;7.90;;;6.40;99.90;;;;;;4152740;28;20115;-59
2024/03/06 04:38:24;;;;;;;15.15;8.85;;;6.40;99.90;;;;;;4158095;28;20056;-59
2024/03/06 04:40:25;;;;;;;16.15;9.18;;;6.40;99.90;;;;;;4151511;28;20389;-61
2024/03/06 04:42:25;;;;;;;14.10;8.90;;;6.40;99.90;;;;;;4157292;28;20441;-59
2024/03/06 04:44:27;;;;;;;13.07;8.13;;;6.40;99.90;;;;;;4155862;28;20386;-60
2024/03/06 04:46:28;;;;;;;15.05;9.13;;;6.40;99.90;;;;;;4147133;28;20045;-62
2024/03/06 04:48:28;;;;;;;17.02;9.85;;;6.40;99.90;;;;;;4151784;28;20033;-60
2024/03/06 04:50:29;;;;;;;16.40;9.30;;;6.30;99.90;;;;;;4149835;28;20025;-60
2024/03/06 04:52:29;;;;;;;16.17;9.57;;;6.30;99.90;;;;;;4155976;28;20040;-59
2024/03/06 04:54:30;;;;;;;19.15;10.57;;;6.30;99.90;;;;;;4154479;28;20172;-60
2024/03/06 04:56:30;;;;;;;16.17;9.75;;;6.30;99.90;;;;;;4157194;28;20048;-59
2024/03/06 04:58:31;;;;;;;17.27;10.60;;;6.30;99.90;;;;;;4157653;28;20033;-59
2024/03/06 05:00:32;;;;;;;17.08;10.68;;;6.30;99.90;;;;;;4153929;28;20533;-59
2024/03/06 05:02:34;;;;;;;19.38;10.88;;;6.30;99.90;;;;;;4151224;28;20117;-59
2024/03/06 05:04:35;;;;;;;15.20;9.93;;;6.30;99.90;;;;;;4149657;28;20053;-59
2024/03/06 05:06:35;;;;;;;15.45;9.43;;;6.30;99.90;;;;;;4170521;28;20052;-59
2024/03/06 05:08:37;;;;;;;16.05;9.65;;;6.30;99.90;;;;;;4153461;28;20042;-59
2024/03/06 05:10:39;;;;;;;17.00;9.60;;;6.30;99.90;;;;;;4144678;28;20034;-59
2024/03/06 05:12:40;;;;;;;17.60;9.37;;;6.30;99.90;;;;;;4156073;28;20057;-59
2024/03/06 05:14:40;;;;;;;16.83;10.50;;;6.30;99.90;;;;;;4157807;28;20471;-59
2024/03/06 05:16:41;;;;;;;15.52;9.50;;;6.20;99.90;;;;;;4151937;28;20041;-59
2024/03/06 05:18:41;;;;;;;15.40;9.32;;;6.30;99.90;;;;;;4151401;28;20508;-59
2024/03/06 05:20:43;;;;;;;16.90;9.50;;;6.30;99.90;;;;;;4153833;28;20168;-59
2024/03/06 05:22:43;;;;;;;13.43;8.32;;;6.30;99.90;;;;;;4155599;28;20451;-59
2024/03/06 05:24:44;;;;;;;12.52;8.00;;;6.30;99.90;;;;;;4154064;28;20069;-59
2024/03/06 05:26:45;;;;;;;13.98;7.53;;;6.30;99.90;;;;;;4155619;28;20589;-59
2024/03/06 05:28:45;;;;;;;11.23;7.13;;;6.20;99.90;;;;;;4154651;28;20478;-59
2024/03/06 05:30:46;;;;;;;10.68;7.30;;;6.20;99.90;;;;;;4153327;28;20057;-59
2024/03/06 05:32:47;;;;;;;11.30;7.30;;;6.20;99.90;;;;;;4160359;28;20037;-59
2024/03/06 05:34:47;;;;;;;13.45;8.23;;;6.20;99.90;;;;;;4151090;28;20490;-59
2024/03/06 05:36:48;;;;;;;12.95;7.97;;;6.20;99.90;;;;;;4155481;28;20041;-59
2024/03/06 05:38:49;;;;;;;13.35;8.43;;;6.20;99.90;;;;;;4159257;28;20125;-59
2024/03/06 05:40:50;;;;;;;15.05;8.88;;;6.20;99.90;;;;;;4158481;28;20146;-59
2024/03/06 05:42:51;;;;;;;12.13;8.23;;;6.10;99.90;;;;;;4159972;28;20025;-59
2024/03/06 05:44:54;;;;;;;10.75;7.25;;;6.10;99.90;;;;;;4158106;28;20132;-59
2024/03/06 05:46:55;;;;;;;12.75;7.47;;;6.10;99.90;;;;;;4154777;28;20041;-61
2024/03/06 05:48:56;;;;;;;13.27;7.57;;;6.10;99.90;;;;;;4156272;28;20053;-60
2024/03/06 05:50:57;;;;;;;11.38;7.72;;;6.10;99.90;;;;;;4152981;28;20040;-59
2024/03/06 05:52:57;;;;;;;11.38;6.72;;;6.00;99.90;;;;;;4159418;28;20103;-59
2024/03/06 05:54:58;;;;;;;11.40;6.60;;;6.00;99.90;;;;;;4159341;28;20050;-59
2024/03/06 05:56:59;;;;;;;11.60;7.22;;;6.00;99.90;;;;;;4150156;28;20441;-61
2024/03/06 05:59:04;;;;;;;11.48;7.32;;;6.00;99.90;;;;;;4158650;28;20057;-60
2024/03/06 06:01:05;;;;;;;13.98;7.80;;;5.90;99.90;;;;;;4159143;28;20025;-59
2024/03/06 06:03:05;;;;;;;15.10;8.85;;;5.90;99.90;;;;;;4159721;28;20037;-59
2024/03/06 06:05:07;;;;;;;15.30;9.70;;;5.90;99.90;;;;;;4154170;28;20048;-60
2024/03/06 06:07:07;;;;;;;14.20;9.32;;;5.90;99.90;;;;;;4154224;28;20049;-59
2024/03/06 06:09:15;;;;;;;15.55;9.30;;;5.80;99.90;;;;;;4153875;28;20053;-59
2024/03/06 06:11:16;;;;;;;13.68;8.73;;;5.90;99.90;;;;;;4152626;28;20052;-59
2024/03/06 06:13:17;;;;;;;16.60;8.52;;;5.90;99.90;;;;;;4159483;28;20060;-59
2024/03/06 06:15:17;;;;;;;11.93;7.55;;;5.90;99.90;;;;;;4155551;28;20112;-59
2024/03/06 06:17:18;;;;;;;14.52;8.18;;;5.90;99.90;;;;;;4153632;28;20030;-59
2024/03/06 06:19:19;;;;;;;12.02;7.57;;;5.90;99.90;;;;;;4150853;28;20139;-59
2024/03/06 06:21:19;;;;;;;13.35;7.75;;;5.90;99.90;;;;;;4139210;28;20050;-58
2024/03/06 06:23:20;;;;;;;15.55;8.20;;;5.90;99.90;;;;;;4148674;28;20064;-59
2024/03/06 06:25:20;;;;;;;15.32;9.23;;;5.90;99.90;;;;;;4155439;28;20049;-58
2024/03/06 06:27:21;;;;;;;15.43;9.43;;;5.90;99.90;;;;;;4156972;28;20036;-58
2024/03/06 06:29:22;;;;;;;16.25;9.02;;;6.00;99.90;;;;;;4157167;28;20038;-58
2024/03/06 06:31:23;;;;;;;14.75;8.60;;;6.00;99.90;;;;;;4154170;28;20033;-59
2024/03/06 06:33:24;;;;;;;15.13;9.23;;;6.00;99.90;;;;;;4150787;28;20407;-58
2024/03/06 06:35:25;;;;;;;22.20;12.30;;;6.00;99.90;;;;;;4140871;28;20038;-59
2024/03/06 06:37:25;;;;;;;18.63;10.30;;;6.00;99.90;;;;;;4158757;28;20398;-58
2024/03/06 06:39:26;;;;;;;16.17;9.45;;;6.00;99.90;;;;;;4152069;28;20212;-58
2024/03/06 06:41:26;;;;;;;14.48;9.02;;;6.00;99.90;;;;;;4154321;28;20539;-58
2024/03/06 06:43:27;;;;;;;14.45;9.57;;;6.00;99.90;;;;;;4152442;28;20034;-58
2024/03/06 06:45:28;;;;;;;14.27;8.85;;;6.10;99.90;;;;;;4150504;28;20731;-59
2024/03/06 06:47:28;;;;;;;16.42;10.20;;;6.10;99.90;;;;;;4150782;28;20075;-58
2024/03/06 06:49:29;;;;;;;20.17;11.68;;;6.10;99.90;;;;;;4154033;28;20059;-63
2024/03/06 06:51:30;;;;;;;21.05;12.45;;;6.10;99.90;;;;;;4151777;28;20033;-59
2024/03/06 06:53:33;;;;;;;26.25;14.77;;;6.10;99.90;;;;;;4153903;28;20033;-59
2024/03/06 06:55:33;;;;;;;28.75;15.80;;;6.10;99.90;;;;;;4158339;28;20095;-58
2024/03/06 06:57:34;;;;;;;25.50;14.75;;;6.10;99.90;;;;;;4151163;28;20430;-59
2024/03/06 06:59:35;;;;;;;28.70;14.90;;;6.10;99.90;;;;;;4154513;28;20037;-60
2024/03/06 07:01:35;;;;;;;25.35;12.82;;;6.10;99.90;;;;;;4156923;28;20052;-59
2024/03/06 07:03:36;;;;;;;20.90;12.88;;;6.10;99.90;;;;;;4159527;28;20053;-59
2024/03/06 07:05:37;;;;;;;20.30;11.20;;;6.10;99.90;;;;;;4157799;28;20482;-58
2024/03/06 07:07:38;;;;;;;18.23;11.00;;;6.10;99.90;;;;;;4158214;28;20072;-58
2024/03/06 07:09:39;;;;;;;17.77;10.40;;;6.10;99.90;;;;;;4151201;28;20037;-58
2024/03/06 07:11:40;;;;;;;18.70;10.05;;;6.20;99.90;;;;;;4157750;28;20463;-59
2024/03/06 07:13:40;;;;;;;18.45;10.77;;;6.20;99.90;;;;;;4155288;28;20057;-58
2024/03/06 07:15:41;;;;;;;17.77;10.50;;;6.20;99.90;;;;;;4158724;28;20455;-59
2024/03/06 07:17:42;;;;;;;17.88;11.13;;;6.20;99.90;;;;;;4154796;28;21195;-59
2024/03/06 07:19:42;;;;;;;19.83;10.90;;;6.20;99.90;;;;;;4151580;28;20390;-59
2024/03/06 07:21:43;;;;;;;15.65;10.40;;;6.30;99.90;;;;;;4153969;28;20512;-58
2024/03/06 07:23:44;;;;;;;15.43;9.48;;;6.30;99.90;;;;;;4149664;28;20033;-59
2024/03/06 07:25:45;;;;;;;16.42;10.32;;;6.40;99.90;;;;;;4147718;28;20033;-59
2024/03/06 07:27:45;;;;;;;22.48;15.27;;;6.40;99.90;;;;;;4150742;28;20501;-59
2024/03/06 07:29:46;;;;;;;24.58;17.25;;;6.40;99.90;;;;;;4149730;28;20038;-59
2024/03/06 07:31:47;;;;;;;24.77;18.08;;;6.50;99.90;;;;;;4148978;28;20030;-76
2024/03/06 07:33:48;;;;;;;22.80;14.05;;;6.50;99.90;;;;;;4154276;28;20038;-75
2024/03/06 07:35:48;;;;;;;21.23;11.77;;;6.50;99.90;;;;;;4159116;28;20109;-75
2024/03/06 07:37:49;;;;;;;19.00;12.15;;;6.50;99.90;;;;;;4149255;28;20037;-75
2024/03/06 07:39:49;;;;;;;18.80;11.18;;;6.50;99.90;;;;;;4140759;28;20528;-75
2024/03/06 07:41:50;;;;;;;20.92;12.18;;;6.60;99.90;;;;;;4155195;28;20477;-76
2024/03/06 07:43:51;;;;;;;19.83;11.15;;;6.60;99.90;;;;;;4154437;28;20041;-76
2024/03/06 07:45:52;;;;;;;21.05;12.05;;;6.60;99.90;;;;;;4156612;28;20037;-75
2024/03/06 07:47:52;;;;;;;20.00;11.48;;;6.70;99.90;;;;;;4150797;28;20033;-75
2024/03/06 07:49:53;;;;;;;18.67;10.35;;;6.70;99.90;;;;;;4150997;28;20060;-75
2024/03/06 07:51:53;;;;;;;17.02;10.25;;;6.80;99.90;;;;;;4151077;28;20064;-75
2024/03/06 07:53:54;;;;;;;15.57;9.68;;;6.90;99.90;;;;;;4144670;28;20109;-75
2024/03/06 07:55:55;;;;;;;12.30;8.32;;;7.00;99.90;;;;;;4152602;28;20878;-75
2024/03/06 07:57:55;;;;;;;16.65;9.63;;;7.20;99.90;;;;;;4155069;28;20049;-75
2024/03/06 07:59:56;;;;;;;14.82;9.45;;;7.30;99.90;;;;;;4155317;28;20037;-75
2024/03/06 08:01:56;;;;;;;13.48;8.85;;;7.50;99.90;;;;;;4155590;28;20065;-75
2024/03/06 08:03:57;;;;;;;15.98;9.90;;;7.60;99.90;;;;;;4155269;28;20087;-75
2024/03/06 08:05:58;;;;;;;16.23;10.60;;;7.80;99.90;;;;;;4153643;28;20045;-74
2024/03/06 08:07:58;;;;;;;14.23;9.15;;;8.00;99.90;;;;;;4153854;28;20555;-75
2024/03/06 08:09:59;;;;;;;12.57;9.02;;;8.10;99.90;;;;;;4170271;28;20033;-75
2024/03/06 08:12:00;;;;;;;13.63;9.00;;;8.30;99.90;;;;;;4156937;28;20030;-74
2024/03/06 08:14:01;;;;;;;13.32;8.50;;;8.40;99.90;;;;;;4151643;28;20485;-70
2024/03/06 08:16:03;;;;;;;12.70;8.80;;;8.60;99.90;;;;;;4157060;28;20116;-74
2024/03/06 08:18:04;;;;;;;12.60;8.55;;;8.70;99.90;;;;;;4154502;28;20096;-74
2024/03/06 08:20:07;;;;;;;13.23;8.18;;;8.90;99.90;;;;;;4153112;28;20030;-73
2024/03/06 08:22:08;;;;;;;13.23;8.20;;;9.20;99.90;;;;;;4151002;28;20555;-71
2024/03/06 08:24:08;;;;;;;10.85;7.60;;;9.40;99.90;;;;;;4154691;28;20069;-73
2024/03/06 08:26:09;;;;;;;10.40;7.63;;;9.60;99.90;;;;;;4154035;28;20471;-73
2024/03/06 08:28:10;;;;;;;10.80;7.18;;;9.80;99.90;;;;;;4155215;28;20052;-73
2024/03/06 08:30:11;;;;;;;9.05;6.90;;;10.00;99.90;;;;;;4155685;28;20041;-73
2024/03/06 08:32:11;;;;;;;11.93;7.70;;;10.20;99.90;;;;;;4156846;28;20073;-73
2024/03/06 08:34:12;;;;;;;10.80;7.82;;;10.40;99.90;;;;;;4155858;28;20041;-73
2024/03/06 08:36:13;;;;;;;10.68;7.53;;;10.60;99.90;;;;;;4157556;28;20434;-73
2024/03/06 08:38:14;;;;;;;12.13;7.70;;;10.80;99.90;;;;;;4154771;28;20052;-73
2024/03/06 08:40:17;;;;;;;9.18;6.60;;;10.90;99.90;;;;;;4153717;28;20478;-73
2024/03/06 08:42:18;;;;;;;10.80;7.05;;;11.00;99.90;;;;;;4158091;28;20026;-59
2024/03/06 08:44:20;;;;;;;8.07;6.20;;;11.20;99.90;;;;;;4160737;28;20466;-58
2024/03/06 08:46:20;;;;;;;9.15;6.63;;;11.30;99.90;;;;;;4155905;28;20120;-58
2024/03/06 08:48:21;;;;;;;8.40;6.30;;;11.40;99.90;;;;;;4160050;28;20641;-58
2024/03/06 08:50:22;;;;;;;9.13;6.70;;;11.50;99.90;;;;;;4155187;28;20045;-58
2024/03/06 08:52:22;;;;;;;9.77;6.68;;;11.60;99.90;;;;;;4148049;28;20064;-58
2024/03/06 08:54:23;;;;;;;9.55;6.25;;;11.70;99.90;;;;;;4152998;28;20486;-58
2024/03/06 08:56:23;;;;;;;7.75;5.90;;;11.70;99.90;;;;;;4147713;28;20033;-58
2024/03/06 08:58:24;;;;;;;7.95;5.80;;;11.80;99.90;;;;;;4154296;28;20109;-58
2024/03/06 09:00:26;;;;;;;6.82;5.03;;;11.90;99.90;;;;;;4152774;28;20038;-59
2024/03/06 09:02:27;;;;;;;8.18;6.05;;;11.90;99.90;;;;;;4154279;28;20034;-58
2024/03/06 09:04:28;;;;;;;10.20;6.20;;;12.00;99.90;;;;;;4155183;28;20045;-58
2024/03/06 09:06:29;;;;;;;8.43;5.70;;;12.10;99.90;;;;;;4156549;28;24750;-59
2024/03/06 09:08:29;;;;;;;8.68;5.80;;;12.10;99.90;;;;;;4158312;28;20045;-58
2024/03/06 09:10:30;;;;;;;5.47;4.30;;;12.10;99.90;;;;;;4154688;28;20029;-58
2024/03/06 09:12:31;;;;;;;6.72;4.85;;;12.20;99.90;;;;;;4155917;28;20401;-59
2024/03/06 09:14:33;;;;;;;6.45;4.70;;;12.20;99.90;;;;;;4158501;28;20040;-62
2024/03/06 09:16:33;;;;;;;7.70;5.82;;;12.30;99.90;;;;;;4155676;28;20149;-59
2024/03/06 09:18:34;;;;;;;6.20;4.93;;;12.30;99.90;;;;;;4155125;28;20042;-58
2024/03/06 09:20:35;;;;;;;6.97;4.97;;;12.40;99.90;;;;;;4157177;28;20029;-58
2024/03/06 09:22:37;;;;;;;7.40;5.10;;;12.40;99.90;;;;;;4156512;28;20038;-58
2024/03/06 09:24:38;;;;;;;7.60;5.05;;;12.50;99.90;;;;;;4159205;28;20069;-58
2024/03/06 09:26:39;;;;;;;7.05;5.05;;;12.50;99.90;;;;;;4155239;28;20044;-58
2024/03/06 09:28:40;;;;;;;6.82;5.10;;;12.50;99.90;;;;;;4159058;28;20049;-60
2024/03/06 09:30:41;;;;;;;7.75;5.28;;;12.40;99.90;;;;;;4153999;28;20026;-58
2024/03/06 09:32:44;;;;;;;5.97;4.93;;;12.40;99.90;;;;;;4157403;28;20037;-58
2024/03/06 09:34:44;;;;;;;7.43;5.53;;;12.40;99.90;;;;;;4158403;28;20548;-58
2024/03/06 09:36:49;;;;;;;8.23;5.95;;;12.50;99.90;;;;;;4155758;28;20037;-58
2024/03/06 09:38:50;;;;;;;9.50;6.13;;;12.50;99.90;;;;;;4153111;28;20046;-58
2024/03/06 09:40:51;;;;;;;7.05;5.80;;;12.50;99.90;;;;;;4157633;28;20492;-58
2024/03/06 09:42:52;;;;;;;9.70;6.22;;;12.60;99.90;;;;;;4158445;28;20045;-58
2024/03/06 09:44:52;;;;;;;8.13;5.53;;;12.60;99.90;;;;;;4157650;28;20037;-58
2024/03/06 09:46:56;;;;;;;7.60;5.70;;;12.60;99.90;;;;;;4155644;28;20457;-58
2024/03/06 09:48:58;;;;;;;7.78;5.82;;;12.60;99.90;;;;;;4157318;28;20056;-58
2024/03/06 09:51:02;;;;;;;7.63;5.97;;;12.60;99.90;;;;;;4159029;28;20133;-58
2024/03/06 09:53:04;;;;;;;7.80;5.95;;;12.50;99.90;;;;;;4155879;28;20038;-73
2024/03/06 09:55:05;;;;;;;8.67;6.00;;;12.50;99.90;;;;;;4152034;28;20039;-74
2024/03/06 09:57:06;;;;;;;8.13;6.22;;;12.40;99.90;;;;;;4152837;28;20040;-73
2024/03/06 09:59:06;;;;;;;9.05;6.45;;;12.40;99.90;;;;;;4158727;28;20128;-73
2024/03/06 10:01:07;;;;;;;9.85;6.22;;;12.40;99.90;;;;;;4155627;28;20462;-72
2024/03/06 10:03:08;;;;;;;8.23;6.57;;;12.40;99.90;;;;;;4169596;28;20066;-72
2024/03/06 10:05:30;;;;;;;8.40;6.30;;;12.40;99.90;;;;;;4161202;28;20022;-72
2024/03/06 10:07:31;;;;;;;9.45;6.25;;;12.50;99.90;;;;;;4148788;28;20069;-72
2024/03/06 10:09:33;;;;;;;12.20;7.70;;;12.50;99.90;;;;;;4156923;28;20038;-72
2024/03/06 10:11:39;;;;;;;22.17;11.73;;;12.50;99.90;;;;;;4156503;28;20041;-71
2024/03/06 10:13:39;;;;;;;26.35;13.00;;;12.50;99.90;;;;;;4156098;28;20625;-73
2024/03/06 10:15:41;;;;;;;18.15;10.50;;;12.50;99.90;;;;;;4158858;28;20025;-72
2024/03/06 10:17:41;;;;;;;12.70;8.38;;;12.50;99.90;;;;;;4157521;28;20045;-73
2024/03/06 10:19:50;;;;;;;13.73;7.60;;;12.60;99.90;;;;;;4159124;28;20526;-72
2024/03/06 10:21:51;;;;;;;10.10;6.97;;;12.60;99.90;;;;;;4149265;28;20026;-71
2024/03/06 10:23:57;;;;;;;11.15;6.90;;;12.70;99.90;;;;;;4140961;28;20217;-72
2024/03/06 10:25:58;;;;;;;9.82;6.53;;;12.70;99.90;;;;;;4141857;28;20034;-72
2024/03/06 10:28:12;;;;;;;9.35;7.05;;;12.70;99.90;;;;;;4141175;28;20045;-71
2024/03/06 10:30:15;;;;;;;9.20;7.00;;;12.80;99.90;;;;;;4155359;28;20033;-71